createdAt,value
2017-04-03T00:00:37.455Z,0
2017-04-03T00:03:29.204Z,0
2017-04-03T00:04:39.435Z,0
2017-04-03T00:05:49.642Z,0
2017-04-03T00:06:58.948Z,0
2017-04-03T00:08:09.009Z,0
2017-04-03T00:09:18.919Z,0
2017-04-03T00:10:28.833Z,0
2017-04-03T00:11:38.747Z,0
2017-04-03T00:12:48.952Z,0
2017-04-03T00:13:58.815Z,0
2017-04-03T00:15:08.425Z,0
2017-04-03T00:16:18.036Z,0
2017-04-03T00:17:27.635Z,0
2017-04-03T00:18:37.551Z,0
2017-04-03T00:19:47.756Z,0
2017-04-03T00:20:57.360Z,0
2017-04-03T00:22:07.634Z,0
2017-04-03T00:23:17.256Z,0
2017-04-03T00:24:27.155Z,0
2017-04-03T00:25:37.425Z,0
2017-04-03T00:26:47.343Z,0
2017-04-03T00:27:57.554Z,0
2017-04-03T00:29:07.171Z,0
2017-04-03T00:30:16.776Z,0
2017-04-03T00:31:26.985Z,0
2017-04-03T00:32:37.192Z,0
2017-04-03T00:33:46.802Z,0
2017-04-03T00:34:56.407Z,0
2017-04-03T00:36:06.019Z,0
2017-04-03T00:38:19.507Z,0
2017-04-03T00:39:29.106Z,0
2017-04-03T00:40:39.338Z,0
2017-04-03T00:41:49.565Z,0
2017-04-03T00:42:59.958Z,0
2017-04-03T00:44:09.872Z,0
2017-04-03T00:45:19.785Z,0
2017-04-03T00:46:29.701Z,0
2017-04-03T00:47:39.680Z,0
2017-04-03T00:48:49.382Z,0
2017-04-03T00:49:59.295Z,0
2017-04-03T00:51:09.512Z,0
2017-04-03T00:52:18.810Z,0
2017-04-03T00:53:28.413Z,0
2017-04-03T00:54:39.705Z,0
2017-04-03T00:55:49.925Z,0
2017-04-03T00:56:59.853Z,0
2017-04-03T00:58:10.056Z,0
2017-04-03T00:59:19.991Z,0
2017-04-03T01:00:30.517Z,0
2017-04-03T01:01:40.740Z,0
2017-04-03T01:02:50.640Z,0
2017-04-03T01:04:00.235Z,0
2017-04-03T01:05:10.153Z,0
2017-04-03T01:06:20.815Z,0
2017-04-03T01:07:30.722Z,0
2017-04-03T01:08:40.328Z,0
2017-04-03T01:09:50.255Z,0
2017-04-03T01:10:59.232Z,0
2017-04-03T01:12:09.282Z,0
2017-04-03T01:13:19.194Z,0
2017-04-03T01:14:28.554Z,0
2017-04-03T01:15:38.780Z,0
2017-04-03T01:16:48.983Z,0
2017-04-03T01:17:59.205Z,0
2017-04-03T01:19:09.101Z,0
2017-04-03T01:20:19.159Z,0
2017-04-03T01:21:28.880Z,0
2017-04-03T01:22:39.084Z,0
2017-04-03T01:23:49.084Z,0
2017-04-03T01:24:58.678Z,0
2017-04-03T01:26:08.599Z,0
2017-04-03T01:27:18.204Z,0
2017-04-03T01:28:28.430Z,0
2017-04-03T01:29:37.887Z,0
2017-04-03T01:30:47.487Z,0
2017-04-03T01:31:57.179Z,0
2017-04-03T01:33:06.778Z,0
2017-04-03T01:34:16.728Z,0
2017-04-03T01:35:27.392Z,0
2017-04-03T01:36:36.677Z,0
2017-04-03T01:37:46.288Z,0
2017-04-03T01:38:56.261Z,0
2017-04-03T01:40:06.204Z,0
2017-04-03T01:41:16.716Z,0
2017-04-03T01:42:26.967Z,0
2017-04-03T01:43:37.184Z,0
2017-04-03T01:44:47.097Z,0
2017-04-03T01:45:56.708Z,0
2017-04-03T01:47:07.407Z,0
2017-04-03T01:48:17.367Z,0
2017-04-03T01:49:27.281Z,0
2017-04-03T01:50:37.179Z,0
2017-04-03T01:51:47.391Z,0
2017-04-03T01:52:57.005Z,0
2017-04-03T01:54:07.214Z,0
2017-04-03T01:55:17.455Z,0
2017-04-03T01:56:27.713Z,0
2017-04-03T01:57:37.923Z,0
2017-04-03T01:58:48.562Z,0
2017-04-03T01:59:58.178Z,0
2017-04-03T02:01:07.792Z,0
2017-04-03T02:02:17.387Z,0
2017-04-03T02:03:26.693Z,0
2017-04-03T02:04:37.070Z,0
2017-04-03T02:05:46.978Z,0
2017-04-03T02:06:57.234Z,0
2017-04-03T02:08:07.459Z,0
2017-04-03T02:09:17.062Z,0
2017-04-03T02:10:27.016Z,0
2017-04-03T02:11:36.680Z,0
2017-04-03T02:12:46.292Z,0
2017-04-03T02:13:56.507Z,0
2017-04-03T02:15:06.844Z,0
2017-04-03T02:16:16.238Z,0
2017-04-03T02:17:26.155Z,0
2017-04-03T02:18:36.364Z,0
2017-04-03T02:19:46.577Z,0
2017-04-03T02:20:56.203Z,0
2017-04-03T02:22:06.570Z,0
2017-04-03T02:23:16.233Z,0
2017-04-03T02:24:25.834Z,0
2017-04-03T02:25:35.741Z,0
2017-04-03T02:26:45.705Z,0
2017-04-03T02:27:55.758Z,0
2017-04-03T02:29:05.972Z,0
2017-04-03T02:30:15.581Z,0
2017-04-03T02:31:25.498Z,0
2017-04-03T02:32:35.416Z,0
2017-04-03T02:33:46.025Z,0
2017-04-03T02:34:55.942Z,0
2017-04-03T02:36:05.542Z,0
2017-04-03T02:37:15.748Z,0
2017-04-03T02:38:25.961Z,0
2017-04-03T02:39:35.927Z,0
2017-04-03T02:40:45.826Z,0
2017-04-03T02:41:55.735Z,0
2017-04-03T02:43:05.649Z,0
2017-04-03T02:44:15.250Z,0
2017-04-03T02:45:25.304Z,0
2017-04-03T02:46:35.521Z,0
2017-04-03T02:47:45.745Z,0
2017-04-03T02:48:55.953Z,0
2017-04-03T02:50:05.593Z,0
2017-04-03T02:51:16.149Z,0
2017-04-03T02:52:25.748Z,0
2017-04-03T02:53:35.683Z,0
2017-04-03T02:54:45.911Z,0
2017-04-03T02:55:55.813Z,0
2017-04-03T02:57:06.337Z,0
2017-04-03T02:58:15.938Z,0
2017-04-03T02:59:26.141Z,0
2017-04-03T03:00:36.062Z,0
2017-04-03T03:01:45.967Z,0
2017-04-03T03:02:56.527Z,0
2017-04-03T03:04:06.419Z,0
2017-04-03T03:05:15.709Z,0
2017-04-03T03:06:25.607Z,0
2017-04-03T03:07:35.199Z,0
2017-04-03T03:08:44.962Z,0
2017-04-03T03:09:54.574Z,0
2017-04-03T03:11:04.793Z,0
2017-04-03T03:12:15.004Z,0
2017-04-03T03:13:24.605Z,0
2017-04-03T03:14:35.559Z,0
2017-04-03T03:15:45.778Z,0
2017-04-03T03:16:55.681Z,0
2017-04-03T03:18:05.883Z,0
2017-04-03T03:19:16.151Z,0
2017-04-03T03:20:26.373Z,0
2017-04-03T03:21:35.668Z,0
2017-04-03T03:22:45.264Z,0
2017-04-03T03:23:55.181Z,0
2017-04-03T03:25:05.098Z,0
2017-04-03T03:26:15.400Z,0
2017-04-03T03:27:25.299Z,0
2017-04-03T03:28:35.205Z,0
2017-04-03T03:29:45.139Z,0
2017-04-03T03:30:54.751Z,0
2017-04-03T03:32:05.011Z,0
2017-04-03T03:33:15.210Z,0
2017-04-03T03:34:25.107Z,0
2017-04-03T03:35:35.018Z,0
2017-04-03T03:36:44.919Z,0
2017-04-03T03:37:55.160Z,0
2017-04-03T03:39:05.063Z,0
2017-04-03T03:40:47.741Z,0
2017-04-03T03:41:57.329Z,0
2017-04-03T03:43:07.659Z,0
2017-04-03T03:44:17.571Z,0
2017-04-03T03:45:27.477Z,0
2017-04-03T03:46:37.381Z,0
2017-04-03T03:47:47.640Z,0
2017-04-03T03:48:57.537Z,0
2017-04-03T03:50:07.437Z,0
2017-04-03T03:51:17.046Z,0
2017-04-03T03:52:26.341Z,0
2017-04-03T03:53:36.248Z,0
2017-04-03T03:54:45.837Z,0
2017-04-03T03:55:56.035Z,0
2017-04-03T03:57:06.246Z,0
2017-04-03T03:58:15.843Z,0
2017-04-03T03:59:25.446Z,0
2017-04-03T04:00:35.759Z,0
2017-04-03T04:01:45.362Z,0
2017-04-03T04:02:54.960Z,0
2017-04-03T04:04:05.180Z,0
2017-04-03T04:05:15.089Z,0
2017-04-03T04:06:26.217Z,0
2017-04-03T04:07:35.823Z,0
2017-04-03T04:08:45.736Z,0
2017-04-03T04:09:55.340Z,0
2017-04-03T04:11:05.556Z,0
2017-04-03T04:12:15.257Z,0
2017-04-03T04:13:25.159Z,0
2017-04-03T04:14:35.075Z,0
2017-04-03T04:15:44.697Z,0
2017-04-03T04:16:54.924Z,0
2017-04-03T04:18:05.295Z,0
2017-04-03T04:19:14.897Z,0
2017-04-03T04:20:25.166Z,0
2017-04-03T04:21:35.087Z,0
2017-04-03T04:22:45.008Z,0
2017-04-03T04:23:55.169Z,0
2017-04-03T04:25:05.091Z,0
2017-04-03T04:26:15.013Z,0
2017-04-03T04:27:25.229Z,0
2017-04-03T04:28:34.223Z,0
2017-04-03T04:29:44.886Z,0
2017-04-03T04:30:54.485Z,0
2017-04-03T04:32:04.143Z,0
2017-04-03T04:33:13.436Z,0
2017-04-03T04:34:23.363Z,0
2017-04-03T04:35:33.679Z,0
2017-04-03T04:36:43.592Z,0
2017-04-03T04:37:53.490Z,4
2017-04-03T04:39:03.402Z,4
2017-04-03T04:40:13.032Z,0
2017-04-03T04:41:23.294Z,4
2017-04-03T04:42:33.527Z,4
2017-04-03T04:43:43.768Z,8
2017-04-03T04:44:53.688Z,8
2017-04-03T04:46:03.619Z,8
2017-04-03T04:47:14.019Z,8
2017-04-03T04:48:24.268Z,12
2017-04-03T04:49:33.891Z,16
2017-04-03T04:50:43.229Z,16
2017-04-03T04:51:53.140Z,20
2017-04-03T04:53:03.082Z,20
2017-04-03T04:54:13.306Z,24
2017-04-03T04:55:22.909Z,28
2017-04-03T04:56:32.504Z,32
2017-04-03T04:57:42.108Z,40
2017-04-03T04:58:52.196Z,44
2017-04-03T05:00:02.412Z,52
2017-04-03T05:01:12.314Z,60
2017-04-03T05:02:22.221Z,64
2017-04-03T05:03:31.207Z,72
2017-04-03T05:04:42.578Z,80
2017-04-03T05:05:52.806Z,92
2017-04-03T05:07:02.420Z,100
2017-04-03T05:08:12.657Z,108
2017-04-03T05:09:22.627Z,120
2017-04-03T05:10:32.895Z,132
2017-04-03T05:11:43.154Z,140
2017-04-03T05:12:52.758Z,156
2017-04-03T05:14:02.695Z,168
2017-04-03T05:15:12.637Z,184
2017-04-03T05:16:22.748Z,196
2017-04-03T05:17:32.082Z,204
2017-04-03T05:18:42.314Z,216
2017-04-03T05:19:51.613Z,236
2017-04-03T05:21:01.541Z,256
2017-04-03T05:22:11.263Z,248
2017-04-03T05:23:21.179Z,240
2017-04-03T05:24:31.166Z,240
2017-04-03T05:25:41.096Z,224
2017-04-03T05:26:51.308Z,216
2017-04-03T05:28:01.679Z,224
2017-04-03T05:29:11.597Z,228
2017-04-03T05:30:21.822Z,232
2017-04-03T05:31:31.807Z,224
2017-04-03T05:32:41.719Z,232
2017-04-03T05:33:51.825Z,200
2017-04-03T05:35:02.059Z,212
2017-04-03T05:36:11.979Z,212
2017-04-03T05:37:21.297Z,232
2017-04-03T05:38:31.220Z,240
2017-04-03T05:39:40.979Z,232
2017-04-03T05:40:51.207Z,236
2017-04-03T05:42:01.435Z,256
2017-04-03T05:43:11.032Z,288
2017-04-03T05:44:21.256Z,288
2017-04-03T05:45:31.521Z,252
2017-04-03T05:46:41.737Z,256
2017-04-03T05:47:51.963Z,260
2017-04-03T05:49:02.174Z,272
2017-04-03T05:50:12.411Z,276
2017-04-03T05:51:22.934Z,300
2017-04-03T05:52:32.544Z,320
2017-04-03T05:53:42.150Z,332
2017-04-03T05:54:51.774Z,320
2017-04-03T05:56:01.674Z,332
2017-04-03T05:57:11.584Z,368
2017-04-03T05:58:20.893Z,340
2017-04-03T05:59:30.507Z,340
2017-04-03T06:00:40.420Z,328
2017-04-03T06:01:50.650Z,328
2017-04-03T06:03:01.180Z,332
2017-04-03T06:04:11.103Z,364
2017-04-03T06:05:21.327Z,364
2017-04-03T06:06:31.244Z,424
2017-04-03T06:07:41.163Z,436
2017-04-03T06:08:51.818Z,464
2017-04-03T06:10:02.070Z,512
2017-04-03T06:11:12.285Z,472
2017-04-03T06:12:21.892Z,468
2017-04-03T06:13:31.803Z,492
2017-04-03T06:14:42.070Z,504
2017-04-03T06:15:52.090Z,496
2017-04-03T06:17:02.054Z,496
2017-04-03T06:18:12.300Z,504
2017-04-03T06:19:22.213Z,476
2017-04-03T06:20:33.305Z,456
2017-04-03T06:21:43.229Z,480
2017-04-03T06:22:53.183Z,456
2017-04-03T06:24:03.404Z,464
2017-04-03T06:25:13.618Z,468
2017-04-03T06:26:23.274Z,492
2017-04-03T06:27:33.499Z,520
2017-04-03T06:28:43.422Z,492
2017-04-03T06:29:53.351Z,496
2017-04-03T06:31:03.259Z,504
2017-04-03T06:32:14.635Z,504
2017-04-03T06:33:24.861Z,496
2017-04-03T06:34:34.781Z,512
2017-04-03T06:35:44.085Z,512
2017-04-03T06:36:54.302Z,536
2017-04-03T06:38:04.054Z,572
2017-04-03T06:39:14.263Z,536
2017-04-03T06:40:24.182Z,492
2017-04-03T06:41:33.479Z,564
2017-04-03T06:42:43.693Z,548
2017-04-03T06:43:54.064Z,532
2017-04-03T06:45:03.672Z,536
2017-04-03T06:46:13.896Z,568
2017-04-03T06:47:24.115Z,628
2017-04-03T06:48:34.334Z,644
2017-04-03T06:49:44.306Z,664
2017-04-03T06:50:54.550Z,628
2017-04-03T06:52:04.462Z,600
2017-04-03T06:53:14.388Z,592
2017-04-03T06:54:24.110Z,556
2017-04-03T06:55:33.941Z,572
2017-04-03T06:56:43.983Z,600
2017-04-03T06:57:54.373Z,584
2017-04-03T06:59:04.818Z,592
2017-04-03T07:00:14.527Z,584
2017-04-03T07:01:24.947Z,576
2017-04-03T07:02:34.615Z,616
2017-04-03T07:03:43.967Z,596
2017-04-03T07:04:53.703Z,596
2017-04-03T07:06:03.506Z,584
2017-04-03T07:07:13.431Z,576
2017-04-03T07:08:23.233Z,624
2017-04-03T07:09:33.587Z,668
2017-04-03T07:10:43.783Z,744
2017-04-03T07:11:53.529Z,760
2017-04-03T07:13:03.596Z,776
2017-04-03T07:14:13.619Z,752
2017-04-03T07:15:22.981Z,744
2017-04-03T07:16:32.924Z,688
2017-04-03T07:17:42.356Z,676
2017-04-03T07:18:52.323Z,680
2017-04-03T07:20:02.000Z,676
2017-04-03T07:21:11.955Z,668
2017-04-03T07:22:22.300Z,684
2017-04-03T07:23:32.676Z,736
2017-04-03T07:24:42.471Z,764
2017-04-03T07:25:52.795Z,836
2017-04-03T07:27:03.151Z,844
2017-04-03T07:28:13.160Z,872
2017-04-03T07:29:23.277Z,884
2017-04-03T07:30:33.098Z,916
2017-04-03T07:31:42.560Z,892
2017-04-03T07:32:52.788Z,884
2017-04-03T07:34:02.407Z,884
2017-04-03T07:35:12.635Z,852
2017-04-03T07:36:22.078Z,816
2017-04-03T07:37:31.705Z,848
2017-04-03T07:38:41.306Z,808
2017-04-03T07:39:51.527Z,784
2017-04-03T07:41:01.752Z,752
2017-04-03T07:42:13.127Z,668
2017-04-03T07:43:23.368Z,652
2017-04-03T07:44:33.594Z,664
2017-04-03T07:45:43.828Z,692
2017-04-03T07:46:53.756Z,732
2017-04-03T07:48:03.810Z,744
2017-04-03T07:49:14.138Z,756
2017-04-03T07:50:23.540Z,764
2017-04-03T07:51:33.690Z,744
2017-04-03T07:52:43.655Z,764
2017-04-03T07:53:55.181Z,772
2017-04-03T07:55:05.299Z,752
2017-04-03T07:56:15.584Z,756
2017-04-03T07:57:25.476Z,772
2017-04-03T07:58:35.075Z,792
2017-04-03T07:59:45.178Z,776
2017-04-03T08:00:55.104Z,836
2017-04-03T08:02:05.319Z,868
2017-04-03T08:03:14.867Z,888
2017-04-03T08:04:24.834Z,948
2017-04-03T08:05:34.764Z,980
2017-04-03T08:06:45.068Z,988
2017-04-03T08:07:55.508Z,1004
2017-04-03T08:09:05.204Z,1012
2017-04-03T08:10:15.349Z,1060
2017-04-03T08:11:26.964Z,1048
2017-04-03T08:12:36.291Z,1060
2017-04-03T08:13:46.249Z,996
2017-04-03T08:14:56.194Z,988
2017-04-03T08:16:06.759Z,988
2017-04-03T08:17:18.567Z,992
2017-04-03T08:18:28.912Z,996
2017-04-03T08:19:39.333Z,952
2017-04-03T08:20:49.276Z,1000
2017-04-03T08:21:59.275Z,1004
2017-04-03T08:23:09.552Z,992
2017-04-03T08:24:19.681Z,992
2017-04-03T08:25:29.956Z,1020
2017-04-03T08:26:40.182Z,968
2017-04-03T08:27:50.093Z,1008
2017-04-03T08:29:00.328Z,1032
2017-04-03T08:30:09.946Z,980
2017-04-03T08:31:19.890Z,984
2017-04-03T08:32:29.505Z,940
2017-04-03T08:33:39.734Z,932
2017-04-03T08:34:49.991Z,968
2017-04-03T08:35:59.899Z,996
2017-04-03T08:37:09.839Z,1120
2017-04-03T08:38:20.062Z,1088
2017-04-03T08:39:30.309Z,1036
2017-04-03T08:40:40.586Z,1008
2017-04-03T08:41:50.513Z,1056
2017-04-03T08:43:00.742Z,1116
2017-04-03T08:44:10.674Z,1092
2017-04-03T08:45:20.599Z,980
2017-04-03T08:46:30.613Z,980
2017-04-03T08:47:40.209Z,996
2017-04-03T08:48:50.441Z,980
2017-04-03T08:50:00.356Z,948
2017-04-03T08:51:10.571Z,940
2017-04-03T08:52:21.096Z,976
2017-04-03T08:53:31.010Z,1004
2017-04-03T08:54:40.944Z,1044
2017-04-03T08:55:50.866Z,1072
2017-04-03T08:57:00.490Z,1068
2017-04-03T08:58:11.178Z,1100
2017-04-03T08:59:21.094Z,1140
2017-04-03T09:00:31.011Z,1200
2017-04-03T09:01:40.644Z,1228
2017-04-03T09:02:50.561Z,1236
2017-04-03T09:04:00.586Z,1244
2017-04-03T09:05:10.815Z,1292
2017-04-03T09:06:20.734Z,1268
2017-04-03T09:07:30.664Z,1228
2017-04-03T09:08:40.875Z,1172
2017-04-03T09:09:51.415Z,1172
2017-04-03T09:11:00.725Z,1192
2017-04-03T09:12:10.087Z,1172
2017-04-03T09:13:19.724Z,1188
2017-04-03T09:14:29.675Z,1172
2017-04-03T09:15:39.578Z,1144
2017-04-03T09:16:49.805Z,1140
2017-04-03T09:17:59.474Z,1168
2017-04-03T09:19:09.396Z,1160
2017-04-03T09:20:19.634Z,1152
2017-04-03T09:21:30.155Z,1172
2017-04-03T09:22:40.073Z,1208
2017-04-03T09:23:50.667Z,1300
2017-04-03T09:25:00.586Z,1324
2017-04-03T09:26:10.507Z,1368
2017-04-03T09:27:21.794Z,1380
2017-04-03T09:28:32.089Z,1324
2017-04-03T09:29:41.701Z,1304
2017-04-03T09:30:51.306Z,1332
2017-04-03T09:32:01.522Z,1344
2017-04-03T09:33:12.331Z,1340
2017-04-03T09:34:22.561Z,1332
2017-04-03T09:35:32.483Z,1352
2017-04-03T09:36:41.788Z,1388
2017-04-03T09:37:51.709Z,1420
2017-04-03T09:39:02.039Z,1404
2017-04-03T09:40:11.652Z,1388
2017-04-03T09:41:21.565Z,1388
2017-04-03T09:42:31.486Z,1364
2017-04-03T09:43:40.794Z,1432
2017-04-03T09:44:50.195Z,1460
2017-04-03T09:46:00.102Z,1460
2017-04-03T09:47:10.021Z,1424
2017-04-03T10:56:31.497Z,1428
2017-04-03T10:57:41.726Z,1432
2017-04-03T10:58:51.632Z,1496
2017-04-03T11:00:01.250Z,1524
2017-04-03T11:01:11.495Z,1580
2017-04-03T11:02:21.874Z,1624
2017-04-03T11:03:31.506Z,1556
2017-04-03T11:04:41.457Z,1476
2017-04-03T11:05:51.191Z,1436
2017-04-03T11:07:01.417Z,1416
2017-04-03T11:08:11.183Z,1420
2017-04-03T11:09:20.491Z,1412
2017-04-03T11:10:30.408Z,1380
2017-04-03T11:11:40.325Z,1320
2017-04-03T11:12:50.548Z,1276
2017-04-03T11:14:00.365Z,1260
2017-04-03T11:15:10.291Z,1260
2017-04-03T11:16:19.901Z,1236
2017-04-03T11:17:30.126Z,1224
2017-04-03T11:18:39.732Z,1228
2017-04-03T11:19:49.735Z,1220
2017-04-03T11:20:59.955Z,1196
2017-04-03T11:22:09.551Z,1184
2017-04-03T11:23:19.776Z,1180
2017-04-03T11:24:29.708Z,1180
2017-04-03T11:25:39.408Z,1184
2017-04-03T11:26:49.323Z,1176
2017-04-03T11:27:59.243Z,1192
2017-04-03T11:29:08.616Z,1184
2017-04-03T11:30:18.528Z,1176
2017-04-03T11:31:28.530Z,1172
2017-04-03T11:32:38.762Z,1172
2017-04-03T11:33:48.083Z,1160
2017-04-03T11:34:57.695Z,1152
2017-04-03T11:36:07.636Z,1140
2017-04-03T11:37:17.963Z,1124
2017-04-03T11:38:27.887Z,1120
2017-04-03T11:39:37.850Z,1140
2017-04-03T11:40:47.177Z,1148
2017-04-03T11:41:57.105Z,1152
2017-04-03T11:43:06.820Z,1144
2017-04-03T11:44:16.762Z,1140
2017-04-03T11:45:27.057Z,1128
2017-04-03T11:46:37.013Z,1124
2017-04-03T11:47:47.237Z,1124
2017-04-03T11:48:57.796Z,1120
2017-04-03T11:50:06.805Z,1120
2017-04-03T11:51:17.028Z,1120
2017-04-03T11:52:27.012Z,1124
2017-04-03T11:53:36.962Z,1120
2017-04-03T11:54:46.712Z,1124
2017-04-03T11:55:56.324Z,1128
2017-04-03T11:57:06.728Z,1108
2017-04-03T11:58:16.964Z,1080
2017-04-03T11:59:27.167Z,1072
2017-04-03T12:00:37.257Z,1072
2017-04-03T12:01:47.192Z,1060
2017-04-03T12:02:56.817Z,1056
2017-04-03T12:04:06.482Z,1060
2017-04-03T12:05:16.164Z,1072
2017-04-03T12:06:26.237Z,1076
2017-04-03T12:07:36.085Z,1076
2017-04-03T12:08:46.096Z,1072
2017-04-03T12:09:56.044Z,1068
2017-04-03T12:11:05.971Z,1076
2017-04-03T12:12:16.069Z,1088
2017-04-03T12:13:25.687Z,1104
2017-04-03T12:14:35.613Z,1092
2017-04-03T12:15:45.624Z,1084
2017-04-03T12:16:55.557Z,1080
2017-04-03T12:18:05.376Z,1076
2017-04-03T12:19:14.989Z,1040
2017-04-03T12:20:24.847Z,1032
2017-04-03T12:21:35.074Z,1040
2017-04-03T12:22:45.299Z,1048
2017-04-03T12:23:55.689Z,1052
2017-04-03T12:25:05.931Z,1044
2017-04-03T12:26:15.852Z,1040
2017-04-03T12:27:25.452Z,1036
2017-04-03T12:28:35.380Z,1036
2017-04-03T12:29:45.754Z,1036
2017-04-03T12:30:55.985Z,1044
2017-04-03T12:32:05.910Z,1040
2017-04-03T12:33:15.561Z,1036
2017-04-03T12:34:25.495Z,1040
2017-04-03T12:35:36.031Z,1036
2017-04-03T12:36:45.667Z,1020
2017-04-03T12:37:54.664Z,1028
2017-04-03T12:39:04.890Z,1032
2017-04-03T12:40:14.215Z,1056
2017-04-03T12:41:24.305Z,1088
2017-04-03T12:42:33.619Z,1144
2017-04-03T12:43:43.536Z,1108
2017-04-03T12:44:52.825Z,1108
2017-04-03T12:46:02.745Z,1096
2017-04-03T12:47:12.848Z,1064
2017-04-03T12:48:22.821Z,1056
2017-04-03T12:49:32.429Z,1040
2017-04-03T12:50:42.360Z,1032
2017-04-03T12:51:52.278Z,1032
2017-04-03T12:53:02.662Z,1028
2017-04-03T12:54:12.584Z,1036
2017-04-03T12:55:22.519Z,1048
2017-04-03T12:56:32.468Z,1064
2017-04-03T12:57:42.093Z,1060
2017-04-03T12:58:52.167Z,1048
2017-04-03T13:00:01.771Z,1044
2017-04-03T13:01:11.997Z,1052
2017-04-03T13:02:21.944Z,1080
2017-04-03T13:03:31.872Z,1104
2017-04-03T13:04:42.314Z,1136
2017-04-03T13:05:52.286Z,1100
2017-04-03T13:07:02.227Z,1080
2017-04-03T13:08:12.151Z,1068
2017-04-03T13:09:22.714Z,1052
2017-04-03T13:10:32.791Z,1040
2017-04-03T13:11:43.016Z,1040
2017-04-03T13:12:52.646Z,1044
2017-04-03T13:14:02.900Z,1036
2017-04-03T13:15:12.849Z,1028
2017-04-03T13:16:22.625Z,1016
2017-04-03T13:17:32.854Z,1012
2017-04-03T13:18:42.799Z,1016
2017-04-03T13:19:53.037Z,1032
2017-04-03T13:21:02.055Z,1024
2017-04-03T13:22:11.771Z,1028
2017-04-03T13:23:21.411Z,1032
2017-04-03T13:24:31.031Z,1032
2017-04-03T13:25:41.318Z,1040
2017-04-03T13:26:51.289Z,1048
2017-04-03T13:28:01.627Z,1028
2017-04-03T13:29:11.236Z,1016
2017-04-03T13:30:20.857Z,1020
2017-04-03T13:31:30.476Z,1032
2017-04-03T13:32:40.791Z,1020
2017-04-03T13:33:50.816Z,1016
2017-04-03T13:35:01.040Z,1016
2017-04-03T13:36:10.961Z,1032
2017-04-03T13:37:21.229Z,1036
2017-04-03T13:38:31.163Z,1052
2017-04-03T13:39:41.187Z,1056
2017-04-03T13:40:51.130Z,1044
2017-04-03T13:42:01.373Z,1036
2017-04-03T13:43:11.044Z,1040
2017-04-03T13:44:20.655Z,1032
2017-04-03T13:45:30.674Z,1044
2017-04-03T13:46:39.977Z,1044
2017-04-03T13:47:49.578Z,1040
2017-04-03T13:48:59.196Z,1052
2017-04-03T13:50:09.099Z,1028
2017-04-03T13:51:18.865Z,1044
2017-04-03T13:52:28.792Z,1064
2017-04-03T13:53:39.018Z,1052
2017-04-03T13:54:48.930Z,1080
2017-04-03T13:55:58.540Z,1044
2017-04-03T13:57:08.008Z,1028
2017-04-03T13:58:17.326Z,1032
2017-04-03T13:59:27.563Z,1048
2017-04-03T14:00:37.803Z,1064
2017-04-03T14:01:47.715Z,1068
2017-04-03T14:02:57.783Z,1080
2017-04-03T14:04:07.704Z,1068
2017-04-03T14:05:17.630Z,1064
2017-04-03T14:06:27.559Z,1044
2017-04-03T14:07:37.474Z,1032
2017-04-03T14:08:47.546Z,1016
2017-04-03T14:09:57.471Z,1020
2017-04-03T14:11:07.088Z,1028
2017-04-03T14:12:16.720Z,1028
2017-04-03T14:13:27.244Z,1032
2017-04-03T14:14:37.325Z,1016
2017-04-03T14:15:47.431Z,1040
2017-04-03T14:16:57.684Z,1032
2017-04-03T14:18:07.595Z,1032
2017-04-03T14:19:17.240Z,1004
2017-04-03T14:20:27.311Z,1008
2017-04-03T14:21:37.251Z,1008
2017-04-03T14:22:46.888Z,1000
2017-04-03T14:23:56.868Z,988
2017-04-03T14:25:07.134Z,1004
2017-04-03T14:26:17.197Z,1008
2017-04-03T14:27:27.128Z,980
2017-04-03T14:28:37.052Z,972
2017-04-03T14:29:46.664Z,816
2017-04-03T14:30:56.330Z,792
2017-04-03T14:32:06.848Z,952
2017-04-03T14:33:16.852Z,980
2017-04-03T14:34:26.796Z,984
2017-04-03T14:35:36.732Z,980
2017-04-03T14:36:46.433Z,972
2017-04-03T14:37:56.508Z,956
2017-04-03T14:39:06.739Z,928
2017-04-03T14:40:16.853Z,920
2017-04-03T14:41:27.106Z,960
2017-04-03T14:42:36.759Z,956
2017-04-03T14:43:46.865Z,948
2017-04-03T14:44:57.162Z,944
2017-04-03T14:46:07.446Z,948
2017-04-03T14:47:17.484Z,948
2017-04-03T14:48:27.943Z,948
2017-04-03T14:49:38.703Z,940
2017-04-03T14:50:48.674Z,936
2017-04-03T14:51:58.657Z,940
2017-04-03T14:53:08.914Z,936
2017-04-03T14:54:18.554Z,940
2017-04-03T14:55:28.359Z,928
2017-04-03T14:56:38.652Z,936
2017-04-03T14:57:48.333Z,936
2017-04-03T14:58:58.326Z,940
2017-04-03T15:00:07.642Z,940
2017-04-03T15:01:17.698Z,940
2017-04-03T15:02:27.018Z,932
2017-04-03T15:03:36.660Z,928
2017-04-03T15:04:45.955Z,928
2017-04-03T15:05:55.572Z,924
2017-04-03T15:07:05.645Z,924
2017-04-03T15:08:15.879Z,916
2017-04-03T15:09:25.814Z,932
2017-04-03T15:10:35.737Z,936
2017-04-03T15:11:45.397Z,932
2017-04-03T15:12:55.455Z,920
2017-04-03T15:14:05.693Z,912
2017-04-03T15:15:15.312Z,920
2017-04-03T15:16:25.230Z,928
2017-04-03T15:17:35.161Z,928
2017-04-03T15:18:44.947Z,916
2017-04-03T15:19:55.292Z,972
2017-04-03T15:21:05.236Z,1000
2017-04-03T15:22:15.538Z,1008
2017-04-03T15:23:25.492Z,988
2017-04-03T15:24:35.533Z,996
2017-04-03T15:25:45.232Z,980
2017-04-03T15:26:55.183Z,972
2017-04-03T15:28:05.111Z,956
2017-04-03T15:29:14.729Z,948
2017-04-03T15:30:25.122Z,972
2017-04-03T15:31:35.069Z,980
2017-04-03T15:32:44.983Z,948
2017-04-03T15:33:55.205Z,904
2017-04-03T15:35:05.411Z,860
2017-04-03T15:36:14.903Z,856
2017-04-03T15:37:24.876Z,872
2017-04-03T15:38:35.168Z,884
2017-04-03T15:39:44.800Z,872
2017-04-03T15:40:54.720Z,856
2017-04-03T15:42:04.133Z,684
2017-04-03T15:43:14.462Z,788
2017-04-03T15:44:24.793Z,752
2017-04-03T15:45:34.202Z,804
2017-04-03T15:46:44.447Z,824
2017-04-03T15:47:54.221Z,836
2017-04-03T15:49:04.199Z,740
2017-04-03T15:50:14.157Z,836
2017-04-03T15:51:23.795Z,840
2017-04-03T15:52:33.743Z,840
2017-04-03T15:53:43.822Z,832
2017-04-03T15:54:53.788Z,828
2017-04-03T15:56:03.391Z,824
2017-04-03T15:57:13.005Z,820
2017-04-03T15:58:22.619Z,816
2017-04-03T15:59:32.764Z,812
2017-04-03T16:00:43.046Z,812
2017-04-03T16:01:52.670Z,808
2017-04-03T16:03:02.995Z,808
2017-04-03T16:04:13.222Z,804
2017-04-03T16:05:22.706Z,800
2017-04-03T16:06:32.337Z,800
2017-04-03T16:07:42.573Z,796
2017-04-03T16:08:52.487Z,788
2017-04-03T16:10:02.723Z,780
2017-04-03T16:11:12.790Z,780
2017-04-03T16:12:22.699Z,776
2017-04-03T16:13:32.311Z,772
2017-04-03T16:14:42.212Z,772
2017-04-03T16:15:51.232Z,764
2017-04-03T16:17:01.002Z,764
2017-04-03T16:18:10.923Z,760
2017-04-03T16:19:20.559Z,760
2017-04-03T16:20:30.841Z,756
2017-04-03T16:21:41.065Z,752
2017-04-03T16:22:50.827Z,744
2017-04-03T16:24:01.058Z,736
2017-04-03T16:25:10.989Z,736
2017-04-03T16:26:21.238Z,732
2017-04-03T16:27:30.252Z,724
2017-04-03T16:28:40.633Z,724
2017-04-03T16:29:50.265Z,720
2017-04-03T16:31:00.584Z,712
2017-04-03T16:32:10.193Z,708
2017-04-03T16:33:19.495Z,704
2017-04-03T16:34:29.276Z,700
2017-04-03T16:35:39.504Z,696
2017-04-03T16:36:49.438Z,680
2017-04-03T16:37:59.375Z,672
2017-04-03T16:39:09.299Z,672
2017-04-03T16:40:19.076Z,668
2017-04-03T16:41:28.748Z,660
2017-04-03T16:42:38.382Z,660
2017-04-03T16:43:47.693Z,652
2017-04-03T16:44:57.010Z,648
2017-04-03T16:46:06.774Z,640
2017-04-03T16:47:15.469Z,632
2017-04-03T16:48:25.393Z,628
2017-04-03T16:49:35.358Z,624
2017-04-03T16:50:45.625Z,616
2017-04-03T16:51:55.404Z,608
2017-04-03T16:53:05.322Z,604
2017-04-03T16:54:15.285Z,596
2017-04-03T16:55:25.245Z,588
2017-04-03T16:56:35.501Z,580
2017-04-03T16:57:45.894Z,572
2017-04-03T16:58:55.839Z,568
2017-04-03T17:00:05.768Z,564
2017-04-03T17:01:15.412Z,552
2017-04-03T17:02:25.341Z,544
2017-04-03T17:03:35.717Z,536
2017-04-03T17:04:45.650Z,524
2017-04-03T17:05:54.950Z,516
2017-04-03T17:07:04.597Z,508
2017-04-03T17:08:14.510Z,504
2017-04-03T17:09:24.637Z,500
2017-04-03T17:10:34.566Z,488
2017-04-03T17:11:44.481Z,480
2017-04-03T17:12:54.399Z,472
2017-04-03T17:14:04.321Z,464
2017-04-03T17:15:13.823Z,456
2017-04-03T17:16:23.778Z,448
2017-04-03T17:17:33.091Z,436
2017-04-03T17:18:43.028Z,424
2017-04-03T17:19:52.358Z,416
2017-04-03T17:21:02.752Z,408
2017-04-03T17:22:12.395Z,396
2017-04-03T17:23:22.356Z,388
2017-04-03T17:24:32.492Z,380